sensor_id;sensor_type;location;lat;lon;timestamp;temperature;humidity
7046;DHT22;3564;53.326;10.356;2023-04-08T00:01:23;11.30;93.60
7046;DHT22;3564;53.326;10.356;2023-04-08T00:03:53;11.20;93.60
7046;DHT22;3564;53.326;10.356;2023-04-08T00:06:21;11.20;93.60
7046;DHT22;3564;53.326;10.356;2023-04-08T00:08:47;11.20;93.50
7046;DHT22;3564;53.326;10.356;2023-04-08T00:11:12;11.20;93.50
7046;DHT22;3564;53.326;10.356;2023-04-08T00:13:38;11.30;93.60
7046;DHT22;3564;53.326;10.356;2023-04-08T00:16:09;11.20;93.60
7046;DHT22;3564;53.326;10.356;2023-04-08T00:18:35;11.30;93.60
7046;DHT22;3564;53.326;10.356;2023-04-08T00:21:03;11.30;93.60
7046;DHT22;3564;53.326;10.356;2023-04-08T00:23:28;11.20;93.50
7046;DHT22;3564;53.326;10.356;2023-04-08T00:25:57;11.30;93.50
7046;DHT22;3564;53.326;10.356;2023-04-08T00:28:22;11.30;93.50
7046;DHT22;3564;53.326;10.356;2023-04-08T00:30:48;11.30;93.60
7046;DHT22;3564;53.326;10.356;2023-04-08T00:33:13;11.30;93.50
7046;DHT22;3564;53.326;10.356;2023-04-08T00:35:39;11.30;93.40
7046;DHT22;3564;53.326;10.356;2023-04-08T00:38:05;11.30;93.50
7046;DHT22;3564;53.326;10.356;2023-04-08T00:40:35;11.30;93.60
7046;DHT22;3564;53.326;10.356;2023-04-08T00:43:00;11.30;93.70
7046;DHT22;3564;53.326;10.356;2023-04-08T00:45:26;11.30;93.70
7046;DHT22;3564;53.326;10.356;2023-04-08T00:47:55;11.30;93.60
7046;DHT22;3564;53.326;10.356;2023-04-08T00:50:21;11.30;93.70
7046;DHT22;3564;53.326;10.356;2023-04-08T00:52:46;11.30;93.70
7046;DHT22;3564;53.326;10.356;2023-04-08T00:55:12;11.30;93.70
7046;DHT22;3564;53.326;10.356;2023-04-08T00:57:37;11.30;93.80
7046;DHT22;3564;53.326;10.356;2023-04-08T01:00:04;11.30;93.90
7046;DHT22;3564;53.326;10.356;2023-04-08T01:07:50;11.30;94.20
7046;DHT22;3564;53.326;10.356;2023-04-08T01:10:20;11.30;94.20
7046;DHT22;3564;53.326;10.356;2023-04-08T01:12:53;11.30;94.30
7046;DHT22;3564;53.326;10.356;2023-04-08T01:15:19;11.20;94.30
7046;DHT22;3564;53.326;10.356;2023-04-08T01:17:47;11.20;94.40
7046;DHT22;3564;53.326;10.356;2023-04-08T01:20:15;11.20;94.40
7046;DHT22;3564;53.326;10.356;2023-04-08T01:25:36;11.20;94.40
7046;DHT22;3564;53.326;10.356;2023-04-08T01:28:09;11.20;94.40
7046;DHT22;3564;53.326;10.356;2023-04-08T01:30:39;11.20;94.50
7046;DHT22;3564;53.326;10.356;2023-04-08T01:33:06;11.20;94.60
7046;DHT22;3564;53.326;10.356;2023-04-08T01:35:34;11.30;94.60
7046;DHT22;3564;53.326;10.356;2023-04-08T01:38:02;11.20;94.80
7046;DHT22;3564;53.326;10.356;2023-04-08T01:40:29;11.20;94.60
7046;DHT22;3564;53.326;10.356;2023-04-08T01:42:55;11.20;94.60
7046;DHT22;3564;53.326;10.356;2023-04-08T01:45:22;11.20;94.60
7046;DHT22;3564;53.326;10.356;2023-04-08T01:47:51;11.20;94.70
7046;DHT22;3564;53.326;10.356;2023-04-08T01:50:20;11.20;94.80
7046;DHT22;3564;53.326;10.356;2023-04-08T01:52:48;11.20;94.70
7046;DHT22;3564;53.326;10.356;2023-04-08T01:55:17;11.20;94.80
7046;DHT22;3564;53.326;10.356;2023-04-08T01:57:46;11.30;94.80
7046;DHT22;3564;53.326;10.356;2023-04-08T02:00:19;11.30;94.80
7046;DHT22;3564;53.326;10.356;2023-04-08T02:02:46;11.30;94.80
7046;DHT22;3564;53.326;10.356;2023-04-08T02:05:13;11.30;94.80
7046;DHT22;3564;53.326;10.356;2023-04-08T02:07:38;11.30;94.90
7046;DHT22;3564;53.326;10.356;2023-04-08T02:10:04;11.30;94.90
7046;DHT22;3564;53.326;10.356;2023-04-08T02:12:32;11.30;94.90
7046;DHT22;3564;53.326;10.356;2023-04-08T02:14:57;11.30;95.00
7046;DHT22;3564;53.326;10.356;2023-04-08T02:17:55;11.20;95.00
7046;DHT22;3564;53.326;10.356;2023-04-08T02:20:34;11.20;95.00
7046;DHT22;3564;53.326;10.356;2023-04-08T02:23:19;11.20;95.10
7046;DHT22;3564;53.326;10.356;2023-04-08T02:25:46;11.20;95.10
7046;DHT22;3564;53.326;10.356;2023-04-08T02:28:13;11.20;95.10
7046;DHT22;3564;53.326;10.356;2023-04-08T02:30:47;11.20;95.10
7046;DHT22;3564;53.326;10.356;2023-04-08T02:33:13;11.20;95.20
7046;DHT22;3564;53.326;10.356;2023-04-08T02:35:40;11.20;95.20
7046;DHT22;3564;53.326;10.356;2023-04-08T02:38:09;11.20;95.20
7046;DHT22;3564;53.326;10.356;2023-04-08T02:40:35;11.20;95.30
7046;DHT22;3564;53.326;10.356;2023-04-08T02:43:01;11.20;95.30
7046;DHT22;3564;53.326;10.356;2023-04-08T02:45:31;11.20;95.30
7046;DHT22;3564;53.326;10.356;2023-04-08T02:47:59;11.20;95.30
7046;DHT22;3564;53.326;10.356;2023-04-08T02:50:28;11.20;95.30
7046;DHT22;3564;53.326;10.356;2023-04-08T02:52:54;11.20;95.20
7046;DHT22;3564;53.326;10.356;2023-04-08T02:55:20;11.20;95.20
7046;DHT22;3564;53.326;10.356;2023-04-08T02:57:46;11.20;95.20
7046;DHT22;3564;53.326;10.356;2023-04-08T03:00:13;11.30;95.30
7046;DHT22;3564;53.326;10.356;2023-04-08T03:02:42;11.30;95.20
7046;DHT22;3564;53.326;10.356;2023-04-08T03:05:08;11.30;95.20
7046;DHT22;3564;53.326;10.356;2023-04-08T03:07:34;11.20;95.20
7046;DHT22;3564;53.326;10.356;2023-04-08T03:10:01;11.20;95.30
7046;DHT22;3564;53.326;10.356;2023-04-08T03:12:27;11.20;95.20
7046;DHT22;3564;53.326;10.356;2023-04-08T03:14:52;11.20;95.20
7046;DHT22;3564;53.326;10.356;2023-04-08T03:17:18;11.20;95.30
7046;DHT22;3564;53.326;10.356;2023-04-08T03:19:44;11.10;95.40
7046;DHT22;3564;53.326;10.356;2023-04-08T03:22:10;11.10;95.30
7046;DHT22;3564;53.326;10.356;2023-04-08T03:24:36;11.10;95.30
7046;DHT22;3564;53.326;10.356;2023-04-08T03:27:04;11.10;95.40
7046;DHT22;3564;53.326;10.356;2023-04-08T03:29:30;11.10;95.40
7046;DHT22;3564;53.326;10.356;2023-04-08T03:31:56;11.10;95.40
7046;DHT22;3564;53.326;10.356;2023-04-08T03:34:21;11.10;95.30
7046;DHT22;3564;53.326;10.356;2023-04-08T03:36:47;11.10;95.40
7046;DHT22;3564;53.326;10.356;2023-04-08T03:39:12;11.20;95.40
7046;DHT22;3564;53.326;10.356;2023-04-08T03:41:38;11.20;95.30
7046;DHT22;3564;53.326;10.356;2023-04-08T03:44:04;11.10;95.30
7046;DHT22;3564;53.326;10.356;2023-04-08T03:46:29;11.10;95.30
7046;DHT22;3564;53.326;10.356;2023-04-08T03:48:55;11.10;95.40
7046;DHT22;3564;53.326;10.356;2023-04-08T03:51:23;11.20;95.50
7046;DHT22;3564;53.326;10.356;2023-04-08T03:53:49;11.10;95.40
7046;DHT22;3564;53.326;10.356;2023-04-08T03:56:14;11.10;95.50
7046;DHT22;3564;53.326;10.356;2023-04-08T03:58:40;11.10;95.50
7046;DHT22;3564;53.326;10.356;2023-04-08T04:01:06;11.10;95.50
7046;DHT22;3564;53.326;10.356;2023-04-08T04:03:32;11.10;95.50
7046;DHT22;3564;53.326;10.356;2023-04-08T04:05:57;11.10;95.50
7046;DHT22;3564;53.326;10.356;2023-04-08T04:08:23;11.10;95.50
7046;DHT22;3564;53.326;10.356;2023-04-08T04:10:48;11.10;95.50
7046;DHT22;3564;53.326;10.356;2023-04-08T04:13:14;11.10;95.50
7046;DHT22;3564;53.326;10.356;2023-04-08T04:15:40;11.10;95.50
7046;DHT22;3564;53.326;10.356;2023-04-08T04:18:06;11.10;95.50
7046;DHT22;3564;53.326;10.356;2023-04-08T04:20:32;11.00;95.30
7046;DHT22;3564;53.326;10.356;2023-04-08T04:23:00;11.00;95.40
7046;DHT22;3564;53.326;10.356;2023-04-08T04:25:26;11.00;95.50
7046;DHT22;3564;53.326;10.356;2023-04-08T04:27:51;11.00;95.60
7046;DHT22;3564;53.326;10.356;2023-04-08T04:30:17;11.00;95.50
7046;DHT22;3564;53.326;10.356;2023-04-08T04:32:44;11.00;95.50
7046;DHT22;3564;53.326;10.356;2023-04-08T04:35:11;11.00;95.60
7046;DHT22;3564;53.326;10.356;2023-04-08T04:37:36;11.00;95.50
7046;DHT22;3564;53.326;10.356;2023-04-08T04:40:05;11.00;95.60
7046;DHT22;3564;53.326;10.356;2023-04-08T04:42:32;11.00;95.60
7046;DHT22;3564;53.326;10.356;2023-04-08T04:44:57;11.00;95.60
7046;DHT22;3564;53.326;10.356;2023-04-08T04:47:23;11.00;95.70
7046;DHT22;3564;53.326;10.356;2023-04-08T04:49:49;11.00;95.80
7046;DHT22;3564;53.326;10.356;2023-04-08T04:52:15;11.00;95.80
7046;DHT22;3564;53.326;10.356;2023-04-08T04:54:40;11.00;95.80
7046;DHT22;3564;53.326;10.356;2023-04-08T04:57:06;11.00;95.90
7046;DHT22;3564;53.326;10.356;2023-04-08T04:59:34;11.00;95.90
7046;DHT22;3564;53.326;10.356;2023-04-08T05:02:00;11.00;95.80
7046;DHT22;3564;53.326;10.356;2023-04-08T05:04:28;11.00;95.90
7046;DHT22;3564;53.326;10.356;2023-04-08T05:06:58;11.00;95.90
7046;DHT22;3564;53.326;10.356;2023-04-08T05:09:24;11.00;96.00
7046;DHT22;3564;53.326;10.356;2023-04-08T05:11:49;11.00;95.90
7046;DHT22;3564;53.326;10.356;2023-04-08T05:14:15;11.00;95.90
7046;DHT22;3564;53.326;10.356;2023-04-08T05:16:40;11.00;95.90
7046;DHT22;3564;53.326;10.356;2023-04-08T05:19:09;11.00;96.00
7046;DHT22;3564;53.326;10.356;2023-04-08T05:21:35;11.00;95.90
7046;DHT22;3564;53.326;10.356;2023-04-08T05:24:03;10.90;95.90
7046;DHT22;3564;53.326;10.356;2023-04-08T05:26:29;10.90;96.00
7046;DHT22;3564;53.326;10.356;2023-04-08T05:28:55;10.90;96.00
7046;DHT22;3564;53.326;10.356;2023-04-08T05:31:23;10.90;96.10
7046;DHT22;3564;53.326;10.356;2023-04-08T05:33:52;10.80;95.90
7046;DHT22;3564;53.326;10.356;2023-04-08T05:36:17;10.80;96.00
7046;DHT22;3564;53.326;10.356;2023-04-08T05:38:43;10.80;96.10
7046;DHT22;3564;53.326;10.356;2023-04-08T05:41:09;10.80;96.10
7046;DHT22;3564;53.326;10.356;2023-04-08T05:43:35;10.80;96.10
7046;DHT22;3564;53.326;10.356;2023-04-08T05:46:07;10.80;96.20
7046;DHT22;3564;53.326;10.356;2023-04-08T05:48:36;10.80;96.10
7046;DHT22;3564;53.326;10.356;2023-04-08T05:51:02;10.80;96.20
7046;DHT22;3564;53.326;10.356;2023-04-08T05:53:28;10.80;96.20
7046;DHT22;3564;53.326;10.356;2023-04-08T05:55:53;10.80;96.30
7046;DHT22;3564;53.326;10.356;2023-04-08T05:58:19;10.80;96.30
7046;DHT22;3564;53.326;10.356;2023-04-08T06:00:45;10.80;96.30
7046;DHT22;3564;53.326;10.356;2023-04-08T06:03:13;10.80;96.40
7046;DHT22;3564;53.326;10.356;2023-04-08T06:05:38;10.80;96.40
7046;DHT22;3564;53.326;10.356;2023-04-08T06:08:07;10.80;96.50
7046;DHT22;3564;53.326;10.356;2023-04-08T06:10:33;10.80;96.50
7046;DHT22;3564;53.326;10.356;2023-04-08T06:12:58;10.80;96.50
7046;DHT22;3564;53.326;10.356;2023-04-08T06:15:24;10.80;96.60
7046;DHT22;3564;53.326;10.356;2023-04-08T06:17:50;10.80;96.50
7046;DHT22;3564;53.326;10.356;2023-04-08T06:20:19;10.80;96.40
7046;DHT22;3564;53.326;10.356;2023-04-08T06:22:47;10.80;96.40
7046;DHT22;3564;53.326;10.356;2023-04-08T06:25:13;10.80;96.50
7046;DHT22;3564;53.326;10.356;2023-04-08T06:27:38;10.80;96.60
7046;DHT22;3564;53.326;10.356;2023-04-08T06:30:04;10.90;96.50
7046;DHT22;3564;53.326;10.356;2023-04-08T06:32:30;10.90;96.60
7046;DHT22;3564;53.326;10.356;2023-04-08T06:34:59;10.90;96.50
7046;DHT22;3564;53.326;10.356;2023-04-08T06:37:25;10.90;96.50
7046;DHT22;3564;53.326;10.356;2023-04-08T06:39:50;10.90;96.40
7046;DHT22;3564;53.326;10.356;2023-04-08T06:42:19;10.90;96.50
7046;DHT22;3564;53.326;10.356;2023-04-08T06:44:44;10.90;96.50
7046;DHT22;3564;53.326;10.356;2023-04-08T06:47:10;10.90;96.50
7046;DHT22;3564;53.326;10.356;2023-04-08T06:49:35;10.90;96.60
7046;DHT22;3564;53.326;10.356;2023-04-08T06:52:04;10.90;96.70
7046;DHT22;3564;53.326;10.356;2023-04-08T06:54:31;11.00;96.70
7046;DHT22;3564;53.326;10.356;2023-04-08T06:56:57;11.00;96.70
7046;DHT22;3564;53.326;10.356;2023-04-08T06:59:26;11.00;96.60
7046;DHT22;3564;53.326;10.356;2023-04-08T07:01:51;11.00;96.50
7046;DHT22;3564;53.326;10.356;2023-04-08T07:04:17;10.90;96.60
7046;DHT22;3564;53.326;10.356;2023-04-08T07:06:42;10.90;96.70
7046;DHT22;3564;53.326;10.356;2023-04-08T07:09:08;10.90;96.70
7046;DHT22;3564;53.326;10.356;2023-04-08T07:11:33;11.00;96.80
7046;DHT22;3564;53.326;10.356;2023-04-08T07:13:59;11.00;96.80
7046;DHT22;3564;53.326;10.356;2023-04-08T07:16:25;11.00;96.80
7046;DHT22;3564;53.326;10.356;2023-04-08T07:18:56;11.00;96.60
7046;DHT22;3564;53.326;10.356;2023-04-08T07:21:25;11.00;96.60
7046;DHT22;3564;53.326;10.356;2023-04-08T07:23:54;11.00;96.50
7046;DHT22;3564;53.326;10.356;2023-04-08T07:26:19;11.00;96.60
7046;DHT22;3564;53.326;10.356;2023-04-08T07:28:46;11.00;96.70
7046;DHT22;3564;53.326;10.356;2023-04-08T07:31:16;11.00;96.60
7046;DHT22;3564;53.326;10.356;2023-04-08T07:33:42;11.00;96.70
7046;DHT22;3564;53.326;10.356;2023-04-08T07:36:09;11.00;96.60
7046;DHT22;3564;53.326;10.356;2023-04-08T07:38:36;11.00;96.50
7046;DHT22;3564;53.326;10.356;2023-04-08T07:41:01;11.00;96.50
7046;DHT22;3564;53.326;10.356;2023-04-08T07:43:27;11.10;96.40
7046;DHT22;3564;53.326;10.356;2023-04-08T07:45:53;11.10;96.40
7046;DHT22;3564;53.326;10.356;2023-04-08T07:48:18;11.10;96.40
7046;DHT22;3564;53.326;10.356;2023-04-08T07:50:44;11.10;96.50
7046;DHT22;3564;53.326;10.356;2023-04-08T07:53:11;11.10;96.80
7046;DHT22;3564;53.326;10.356;2023-04-08T07:55:36;11.10;96.50
7046;DHT22;3564;53.326;10.356;2023-04-08T07:58:03;11.10;96.60
7046;DHT22;3564;53.326;10.356;2023-04-08T08:00:32;11.20;96.70
7046;DHT22;3564;53.326;10.356;2023-04-08T08:02:57;11.20;96.70
7046;DHT22;3564;53.326;10.356;2023-04-08T08:05:23;11.20;96.70
7046;DHT22;3564;53.326;10.356;2023-04-08T08:07:51;11.20;96.60
7046;DHT22;3564;53.326;10.356;2023-04-08T08:10:17;11.20;96.60
7046;DHT22;3564;53.326;10.356;2023-04-08T08:12:43;11.30;96.70
7046;DHT22;3564;53.326;10.356;2023-04-08T08:15:08;11.30;96.70
7046;DHT22;3564;53.326;10.356;2023-04-08T08:17:34;11.30;96.60
7046;DHT22;3564;53.326;10.356;2023-04-08T08:20:04;11.30;96.60
7046;DHT22;3564;53.326;10.356;2023-04-08T08:22:30;11.30;96.60
7046;DHT22;3564;53.326;10.356;2023-04-08T08:24:56;11.40;96.70
7046;DHT22;3564;53.326;10.356;2023-04-08T08:27:22;11.40;96.70
7046;DHT22;3564;53.326;10.356;2023-04-08T08:29:48;11.40;96.70
7046;DHT22;3564;53.326;10.356;2023-04-08T08:32:16;11.40;96.70
7046;DHT22;3564;53.326;10.356;2023-04-08T08:34:42;11.40;96.70
7046;DHT22;3564;53.326;10.356;2023-04-08T08:37:07;11.40;96.80
7046;DHT22;3564;53.326;10.356;2023-04-08T08:39:33;11.40;96.70
7046;DHT22;3564;53.326;10.356;2023-04-08T08:41:58;11.50;96.60
7046;DHT22;3564;53.326;10.356;2023-04-08T08:44:25;11.50;96.50
7046;DHT22;3564;53.326;10.356;2023-04-08T08:46:51;11.50;96.60
7046;DHT22;3564;53.326;10.356;2023-04-08T08:49:18;11.50;96.60
7046;DHT22;3564;53.326;10.356;2023-04-08T08:51:47;11.50;96.60
7046;DHT22;3564;53.326;10.356;2023-04-08T08:54:14;11.50;96.60
7046;DHT22;3564;53.326;10.356;2023-04-08T08:56:40;11.50;96.70
7046;DHT22;3564;53.326;10.356;2023-04-08T08:59:08;11.50;96.60
7046;DHT22;3564;53.326;10.356;2023-04-08T09:01:40;11.50;96.50
7046;DHT22;3564;53.326;10.356;2023-04-08T09:04:17;11.50;96.60
7046;DHT22;3564;53.326;10.356;2023-04-08T09:06:45;11.50;96.50
7046;DHT22;3564;53.326;10.356;2023-04-08T09:09:11;11.50;96.50
7046;DHT22;3564;53.326;10.356;2023-04-08T09:11:44;11.60;96.50
7046;DHT22;3564;53.326;10.356;2023-04-08T09:14:26;11.60;96.50
7046;DHT22;3564;53.326;10.356;2023-04-08T09:16:54;11.60;96.50
7046;DHT22;3564;53.326;10.356;2023-04-08T09:19:19;11.60;96.50
7046;DHT22;3564;53.326;10.356;2023-04-08T09:21:45;11.60;96.50
7046;DHT22;3564;53.326;10.356;2023-04-08T09:24:29;11.60;96.50
7046;DHT22;3564;53.326;10.356;2023-04-08T09:26:55;11.60;96.50
7046;DHT22;3564;53.326;10.356;2023-04-08T09:29:23;11.60;96.50
7046;DHT22;3564;53.326;10.356;2023-04-08T09:31:56;11.60;96.60
7046;DHT22;3564;53.326;10.356;2023-04-08T09:34:22;11.60;96.60
7046;DHT22;3564;53.326;10.356;2023-04-08T09:36:49;11.70;96.70
7046;DHT22;3564;53.326;10.356;2023-04-08T09:39:14;11.70;96.70
7046;DHT22;3564;53.326;10.356;2023-04-08T09:41:41;11.70;96.50
7046;DHT22;3564;53.326;10.356;2023-04-08T09:44:09;11.70;96.50
7046;DHT22;3564;53.326;10.356;2023-04-08T09:49:35;11.70;96.70
7046;DHT22;3564;53.326;10.356;2023-04-08T09:52:20;11.70;96.70
7046;DHT22;3564;53.326;10.356;2023-04-08T10:00:18;11.80;96.70
7046;DHT22;3564;53.326;10.356;2023-04-08T10:03:18;11.80;97.00
7046;DHT22;3564;53.326;10.356;2023-04-08T10:05:47;11.80;96.70
7046;DHT22;3564;53.326;10.356;2023-04-08T10:08:14;11.80;96.50
7046;DHT22;3564;53.326;10.356;2023-04-08T10:10:46;11.80;96.50
7046;DHT22;3564;53.326;10.356;2023-04-08T10:13:12;11.80;96.60
7046;DHT22;3564;53.326;10.356;2023-04-08T10:15:38;11.80;96.50
7046;DHT22;3564;53.326;10.356;2023-04-08T10:23:06;11.90;96.60
7046;DHT22;3564;53.326;10.356;2023-04-08T10:25:39;11.90;96.60
7046;DHT22;3564;53.326;10.356;2023-04-08T10:30:46;11.90;96.60
7046;DHT22;3564;53.326;10.356;2023-04-08T10:38:14;12.00;96.90
7046;DHT22;3564;53.326;10.356;2023-04-08T10:40:47;12.00;96.80
7046;DHT22;3564;53.326;10.356;2023-04-08T10:43:14;12.00;96.70
7046;DHT22;3564;53.326;10.356;2023-04-08T10:45:41;12.00;96.50
7046;DHT22;3564;53.326;10.356;2023-04-08T10:48:17;12.10;96.60
7046;DHT22;3564;53.326;10.356;2023-04-08T10:51:00;12.10;96.50
7046;DHT22;3564;53.326;10.356;2023-04-08T10:53:26;12.10;96.50
7046;DHT22;3564;53.326;10.356;2023-04-08T10:55:53;12.10;96.50
7046;DHT22;3564;53.326;10.356;2023-04-08T10:58:18;12.20;96.50
7046;DHT22;3564;53.326;10.356;2023-04-08T11:00:47;12.20;96.40
7046;DHT22;3564;53.326;10.356;2023-04-08T11:03:13;12.20;96.80
7046;DHT22;3564;53.326;10.356;2023-04-08T11:05:41;12.20;96.50
7046;DHT22;3564;53.326;10.356;2023-04-08T11:08:07;12.20;96.40
7046;DHT22;3564;53.326;10.356;2023-04-08T11:10:37;12.30;96.40
7046;DHT22;3564;53.326;10.356;2023-04-08T11:13:09;12.30;96.40
7046;DHT22;3564;53.326;10.356;2023-04-08T11:15:36;12.30;96.50
7046;DHT22;3564;53.326;10.356;2023-04-08T11:18:03;12.30;96.40
7046;DHT22;3564;53.326;10.356;2023-04-08T11:20:30;12.30;96.30
7046;DHT22;3564;53.326;10.356;2023-04-08T11:22:56;12.40;96.30
7046;DHT22;3564;53.326;10.356;2023-04-08T11:25:22;12.40;96.50
7046;DHT22;3564;53.326;10.356;2023-04-08T11:27:48;12.40;96.50
7046;DHT22;3564;53.326;10.356;2023-04-08T11:30:17;12.40;96.40
7046;DHT22;3564;53.326;10.356;2023-04-08T11:32:45;12.40;96.40
7046;DHT22;3564;53.326;10.356;2023-04-08T11:35:11;12.40;96.30
7046;DHT22;3564;53.326;10.356;2023-04-08T11:37:41;12.40;96.30
7046;DHT22;3564;53.326;10.356;2023-04-08T11:40:10;12.40;96.30
7046;DHT22;3564;53.326;10.356;2023-04-08T11:42:37;12.50;96.30
7046;DHT22;3564;53.326;10.356;2023-04-08T11:45:11;12.40;96.30
7046;DHT22;3564;53.326;10.356;2023-04-08T11:47:37;12.50;96.30
7046;DHT22;3564;53.326;10.356;2023-04-08T11:50:04;12.50;96.30
7046;DHT22;3564;53.326;10.356;2023-04-08T11:55:09;12.50;96.20
7046;DHT22;3564;53.326;10.356;2023-04-08T11:57:36;12.60;96.20
7046;DHT22;3564;53.326;10.356;2023-04-08T12:00:02;12.60;96.20
7046;DHT22;3564;53.326;10.356;2023-04-08T12:02:30;12.60;96.20
7046;DHT22;3564;53.326;10.356;2023-04-08T12:04:55;12.60;96.10
7046;DHT22;3564;53.326;10.356;2023-04-08T12:07:21;12.60;96.20
7046;DHT22;3564;53.326;10.356;2023-04-08T12:09:46;12.60;96.20
7046;DHT22;3564;53.326;10.356;2023-04-08T12:12:12;12.70;96.20
7046;DHT22;3564;53.326;10.356;2023-04-08T12:14:37;12.70;96.10
7046;DHT22;3564;53.326;10.356;2023-04-08T12:17:03;12.70;96.10
7046;DHT22;3564;53.326;10.356;2023-04-08T12:19:28;12.70;96.00
7046;DHT22;3564;53.326;10.356;2023-04-08T12:21:54;12.70;96.00
7046;DHT22;3564;53.326;10.356;2023-04-08T12:24:20;12.80;96.00
7046;DHT22;3564;53.326;10.356;2023-04-08T12:26:45;12.80;95.90
7046;DHT22;3564;53.326;10.356;2023-04-08T12:29:11;12.80;96.00
7046;DHT22;3564;53.326;10.356;2023-04-08T12:31:36;12.70;96.00
7046;DHT22;3564;53.326;10.356;2023-04-08T12:34:02;12.70;96.10
7046;DHT22;3564;53.326;10.356;2023-04-08T12:36:27;12.70;96.10
7046;DHT22;3564;53.326;10.356;2023-04-08T12:38:56;12.80;96.10
7046;DHT22;3564;53.326;10.356;2023-04-08T12:41:22;12.80;96.10
7046;DHT22;3564;53.326;10.356;2023-04-08T12:43:48;12.80;96.00
7046;DHT22;3564;53.326;10.356;2023-04-08T12:46:13;12.80;95.90
7046;DHT22;3564;53.326;10.356;2023-04-08T12:48:39;12.80;95.90
7046;DHT22;3564;53.326;10.356;2023-04-08T12:51:04;12.80;95.90
7046;DHT22;3564;53.326;10.356;2023-04-08T12:53:30;12.80;95.80
7046;DHT22;3564;53.326;10.356;2023-04-08T12:56:02;12.80;95.80
7046;DHT22;3564;53.326;10.356;2023-04-08T12:58:27;12.80;95.90
7046;DHT22;3564;53.326;10.356;2023-04-08T13:00:53;12.80;95.90
7046;DHT22;3564;53.326;10.356;2023-04-08T13:03:18;12.90;95.90
7046;DHT22;3564;53.326;10.356;2023-04-08T13:05:44;12.90;95.90
7046;DHT22;3564;53.326;10.356;2023-04-08T13:08:10;12.90;95.90
7046;DHT22;3564;53.326;10.356;2023-04-08T13:10:41;12.90;95.90
7046;DHT22;3564;53.326;10.356;2023-04-08T13:13:10;12.80;95.90
7046;DHT22;3564;53.326;10.356;2023-04-08T13:15:38;12.80;95.90
7046;DHT22;3564;53.326;10.356;2023-04-08T13:18:04;12.80;96.00
7046;DHT22;3564;53.326;10.356;2023-04-08T13:20:29;12.80;96.00
7046;DHT22;3564;53.326;10.356;2023-04-08T13:22:55;12.80;96.00
7046;DHT22;3564;53.326;10.356;2023-04-08T13:25:20;12.80;96.00
7046;DHT22;3564;53.326;10.356;2023-04-08T13:27:46;12.80;96.10
7046;DHT22;3564;53.326;10.356;2023-04-08T13:30:12;12.80;96.00
7046;DHT22;3564;53.326;10.356;2023-04-08T13:32:37;12.90;96.00
7046;DHT22;3564;53.326;10.356;2023-04-08T13:35:03;12.90;96.30
7046;DHT22;3564;53.326;10.356;2023-04-08T13:37:29;12.90;96.00
7046;DHT22;3564;53.326;10.356;2023-04-08T13:39:55;12.90;96.10
7046;DHT22;3564;53.326;10.356;2023-04-08T13:42:24;12.90;96.00
7046;DHT22;3564;53.326;10.356;2023-04-08T13:44:50;12.90;96.00
7046;DHT22;3564;53.326;10.356;2023-04-08T13:47:16;13.00;96.00
7046;DHT22;3564;53.326;10.356;2023-04-08T13:49:42;13.00;96.10
7046;DHT22;3564;53.326;10.356;2023-04-08T13:52:07;13.00;96.10
7046;DHT22;3564;53.326;10.356;2023-04-08T13:54:33;13.00;96.00
7046;DHT22;3564;53.326;10.356;2023-04-08T13:56:59;13.00;96.00
7046;DHT22;3564;53.326;10.356;2023-04-08T13:59:25;13.00;96.00
7046;DHT22;3564;53.326;10.356;2023-04-08T14:01:51;13.00;96.00
7046;DHT22;3564;53.326;10.356;2023-04-08T14:04:21;13.00;96.00
7046;DHT22;3564;53.326;10.356;2023-04-08T14:06:48;13.00;96.00
7046;DHT22;3564;53.326;10.356;2023-04-08T14:09:16;13.00;96.10
7046;DHT22;3564;53.326;10.356;2023-04-08T14:11:42;13.00;96.00
7046;DHT22;3564;53.326;10.356;2023-04-08T14:14:08;13.00;96.00
7046;DHT22;3564;53.326;10.356;2023-04-08T14:16:33;13.00;96.00
7046;DHT22;3564;53.326;10.356;2023-04-08T14:19:00;13.00;96.00
7046;DHT22;3564;53.326;10.356;2023-04-08T14:21:26;13.00;96.00
7046;DHT22;3564;53.326;10.356;2023-04-08T14:23:52;13.00;96.00
7046;DHT22;3564;53.326;10.356;2023-04-08T14:26:17;13.00;96.00
7046;DHT22;3564;53.326;10.356;2023-04-08T14:28:46;13.00;96.00
7046;DHT22;3564;53.326;10.356;2023-04-08T14:31:14;13.00;96.20
7046;DHT22;3564;53.326;10.356;2023-04-08T14:33:40;13.00;96.10
7046;DHT22;3564;53.326;10.356;2023-04-08T14:36:07;13.00;96.20
7046;DHT22;3564;53.326;10.356;2023-04-08T14:38:32;13.00;96.10
7046;DHT22;3564;53.326;10.356;2023-04-08T14:41:02;13.00;96.20
7046;DHT22;3564;53.326;10.356;2023-04-08T14:43:27;12.90;96.20
7046;DHT22;3564;53.326;10.356;2023-04-08T14:45:53;12.90;96.20
7046;DHT22;3564;53.326;10.356;2023-04-08T14:48:18;12.90;96.30
7046;DHT22;3564;53.326;10.356;2023-04-08T14:50:44;12.90;96.40
7046;DHT22;3564;53.326;10.356;2023-04-08T14:53:10;12.90;96.30
7046;DHT22;3564;53.326;10.356;2023-04-08T14:55:36;12.90;96.40
7046;DHT22;3564;53.326;10.356;2023-04-08T14:58:03;12.90;96.40
7046;DHT22;3564;53.326;10.356;2023-04-08T15:00:28;13.00;96.50
7046;DHT22;3564;53.326;10.356;2023-04-08T15:02:54;13.00;96.60
7046;DHT22;3564;53.326;10.356;2023-04-08T15:05:20;13.00;96.60
7046;DHT22;3564;53.326;10.356;2023-04-08T15:07:46;13.00;96.60
7046;DHT22;3564;53.326;10.356;2023-04-08T15:10:12;13.00;96.60
7046;DHT22;3564;53.326;10.356;2023-04-08T15:12:37;13.00;96.60
7046;DHT22;3564;53.326;10.356;2023-04-08T15:15:03;13.00;96.60
7046;DHT22;3564;53.326;10.356;2023-04-08T15:17:29;13.00;96.60
7046;DHT22;3564;53.326;10.356;2023-04-08T15:19:57;12.90;96.70
7046;DHT22;3564;53.326;10.356;2023-04-08T15:22:23;12.90;96.70
7046;DHT22;3564;53.326;10.356;2023-04-08T15:24:49;12.90;96.70
7046;DHT22;3564;53.326;10.356;2023-04-08T15:27:14;12.90;96.70
7046;DHT22;3564;53.326;10.356;2023-04-08T15:29:40;12.90;96.70
7046;DHT22;3564;53.326;10.356;2023-04-08T15:32:06;12.90;96.80
7046;DHT22;3564;53.326;10.356;2023-04-08T15:34:32;12.90;96.90
7046;DHT22;3564;53.326;10.356;2023-04-08T15:36:58;12.90;96.90
7046;DHT22;3564;53.326;10.356;2023-04-08T15:39:23;12.90;96.90
7046;DHT22;3564;53.326;10.356;2023-04-08T15:41:49;12.90;96.80
7046;DHT22;3564;53.326;10.356;2023-04-08T15:44:15;12.90;97.00
7046;DHT22;3564;53.326;10.356;2023-04-08T15:46:41;12.90;96.90
7046;DHT22;3564;53.326;10.356;2023-04-08T15:49:07;12.90;96.90
7046;DHT22;3564;53.326;10.356;2023-04-08T15:51:32;12.90;96.90
7046;DHT22;3564;53.326;10.356;2023-04-08T15:53:58;12.90;97.00
7046;DHT22;3564;53.326;10.356;2023-04-08T15:56:25;12.80;96.90
7046;DHT22;3564;53.326;10.356;2023-04-08T15:58:52;12.80;96.90
7046;DHT22;3564;53.326;10.356;2023-04-08T16:01:18;12.80;96.90
7046;DHT22;3564;53.326;10.356;2023-04-08T16:03:44;12.80;97.00
7046;DHT22;3564;53.326;10.356;2023-04-08T16:06:10;12.80;97.00
7046;DHT22;3564;53.326;10.356;2023-04-08T16:08:36;12.80;97.10
7046;DHT22;3564;53.326;10.356;2023-04-08T16:11:04;12.80;97.20
7046;DHT22;3564;53.326;10.356;2023-04-08T16:13:30;12.70;97.10
7046;DHT22;3564;53.326;10.356;2023-04-08T16:15:57;12.70;97.10